Аэропорт
Угольный (UHMA)

 UHMA / DYR
ЗЦ Хабаровск
Магадан (UHMM)
Магадан (UHMM)
 64.73490, 177.74100  / 194 ft

 UHMA 230030Z 33009MPS CAVOK M12/M16 Q1021 R01/CLRD60 NOSIG RMK END R01/34008MPS QFE762/1016

UHMA_AIP_0217
показать схемы
Название сценария Тип сценария Flight Simulator 9 Flight Simulator X Prepar3D v2 Prepar3D v3 Prepar3D v4 xPlane
uhma-scenery-fs9-1003 бесплатный
uhma-scenery-fsx-1308 бесплатный


2019 © VATRUS division (Privacy Policy)